KLOZ/LOZ METAR and TAF weather

Enter ICAO airport designator
Station Type Date Time Source
KLOZ METAR 2020/01/22 20:53 UTC NOAA

KLOZ 222053Z AUTO 00000KT 10SM CLR 05/M10 A3030 RMK AO2 SLP273 T00501100 56020


Station Type Date Time Source
KLOZ Decoded METAR 2020/01/22 20:53 UTC NOAA

LONDON-CORBIN AIRPORT, KY, United States (KLOZ) 37-05N 084-04W 362M
Jan 22, 2020 - 03:53 PM EST / 2020.01.22 2053 UTC
Wind: Calm:0
Visibility: 10 mile(s):0
Sky conditions: clear
Temperature: 41.0 F (5.0 C)
Dew Point: 14.0 F (-10.0 C)
Relative Humidity: 32%
Pressure (altimeter): 30.3 in. Hg (1026 hPa)
Pressure tendency: 0.06 inches (2.0 hPa) lower than three hours ago
ob: KLOZ 222053Z AUTO 00000KT 10SM CLR 05/M10 A3030 RMK AO2 SLP273 T00501100 56020
cycle: 21

Station Type Date Time Source
KLOZ TAF 2020/01/22 18:36 UTC NOAA

TAF KLOZ 221733Z 2218/2318 VRB03KT P6SM SCT250
FM230100 00000KT P6SM BKN200

Example: see airport list